Wilton, California
Current Conditions -  °F | °C
As of 8:46 PM on Saturday 22 Nov 2014 (Local Time) from KMHR Reporting Station
Clear Clear  
Wind Chill: 48°   Ceiling: Unl
Heat Index: 48°   Visibility: 7mi
Dew Point: 48°   Wind: 3mph
Humidity: 100%   Direction: 320°NW
Pressure: 30.21"   Gusts: NA
Location:  38.42°N, 121.21°W
Report Text: KMHR 230446Z 32003KT 7SM M1FG SKC 09/09 A3021
Loading
Personal Weather Stations






























Interactive Weather Map New forecast layout! Learn more

10-Day Weather Forecast

Advertisements
Track Severe Weather on mobile